createdAt,value
2019-03-06T00:01:23.016Z,99902.53
2019-03-06T00:03:50.273Z,99898.03
2019-03-06T00:06:17.604Z,99904.00
2019-03-06T00:08:45.966Z,99901.22
2019-03-06T00:11:13.428Z,99905.03
2019-03-06T00:13:42.068Z,99896.59
2019-03-06T00:16:10.245Z,99891.81
2019-03-06T00:18:37.362Z,99892.63
2019-03-06T00:21:05.287Z,99888.02
2019-03-06T00:23:32.473Z,99886.91
2019-03-06T00:25:59.532Z,99885.62
2019-03-06T00:28:26.597Z,99886.80
2019-03-06T00:30:53.759Z,99878.19
2019-03-06T00:33:22.227Z,99866.25
2019-03-06T00:35:50.259Z,99871.22
2019-03-06T00:38:17.461Z,99874.25
2019-03-06T00:41:07.082Z,99875.27
2019-03-06T00:43:34.179Z,99878.91
2019-03-06T00:46:01.236Z,99879.50
2019-03-06T00:48:28.600Z,99878.57
2019-03-06T00:50:56.053Z,99878.87
2019-03-06T00:53:23.339Z,99877.22
2019-03-06T00:55:50.403Z,99873.22
2019-03-06T00:58:17.586Z,99875.45
2019-03-06T01:00:44.625Z,99868.62
2019-03-06T01:03:12.569Z,99865.30
2019-03-06T01:05:39.668Z,99858.52
2019-03-06T01:08:06.703Z,99857.69
2019-03-06T01:10:33.768Z,99860.21
2019-03-06T01:13:00.927Z,99867.59
2019-03-06T01:15:28.547Z,99860.92
2019-03-06T01:17:55.610Z,99854.38
2019-03-06T01:20:22.704Z,99856.23
2019-03-06T01:22:49.759Z,99848.92
2019-03-06T01:25:18.616Z,99847.72
2019-03-06T01:27:45.742Z,99844.48
2019-03-06T01:30:15.725Z,99843.19
2019-03-06T01:32:43.202Z,99841.31
2019-03-06T01:35:28.676Z,99843.78
2019-03-06T01:38:24.720Z,99845.46
2019-03-06T01:41:17.257Z,99841.37
2019-03-06T01:43:50.559Z,99838.08
2019-03-06T01:46:17.659Z,99838.48
2019-03-06T01:48:45.956Z,99830.59
2019-03-06T01:51:13.455Z,99821.34
2019-03-06T01:53:40.559Z,99823.21
2019-03-06T01:56:07.993Z,99824.66
2019-03-06T01:58:35.483Z,99817.22
2019-03-06T02:01:02.807Z,99815.55
2019-03-06T02:03:29.817Z,99809.84
2019-03-06T02:05:58.066Z,99808.48
2019-03-06T02:08:25.146Z,99803.70
2019-03-06T02:10:52.579Z,99803.90
2019-03-06T02:13:21.688Z,99797.97
2019-03-06T02:15:48.873Z,99787.80
2019-03-06T02:18:16.524Z,99781.86
2019-03-06T02:20:43.583Z,99797.64
2019-03-06T02:23:11.083Z,99806.12
2019-03-06T02:25:38.902Z,99808.38
2019-03-06T02:28:06.136Z,99809.23
2019-03-06T02:30:33.439Z,99801.86
2019-03-06T02:33:00.848Z,99790.78
2019-03-06T02:35:27.890Z,99776.22
2019-03-06T02:37:55.412Z,99780.08
2019-03-06T02:40:22.839Z,99767.45
2019-03-06T02:42:49.896Z,99769.83
2019-03-06T02:45:18.271Z,99768.69
2019-03-06T02:47:45.321Z,99772.25
2019-03-06T02:50:13.067Z,99766.18
2019-03-06T02:52:40.343Z,99768.27
2019-03-06T02:55:08.495Z,99774.83
2019-03-06T02:57:36.525Z,99778.41
2019-03-06T03:00:27.267Z,99782.55
2019-03-06T03:03:06.491Z,99763.41
2019-03-06T03:05:41.640Z,99766.72
2019-03-06T03:08:08.685Z,99762.80
2019-03-06T03:10:35.720Z,99767.33
2019-03-06T03:13:02.838Z,99757.48
2019-03-06T03:15:30.271Z,99743.70
2019-03-06T03:17:57.707Z,99742.37
2019-03-06T03:20:24.783Z,99732.73
2019-03-06T03:22:52.231Z,99735.77
2019-03-06T03:25:19.260Z,99745.98
2019-03-06T03:27:46.350Z,99748.47
2019-03-06T03:30:15.776Z,99736.27
2019-03-06T03:32:43.357Z,99729.53
2019-03-06T03:35:11.037Z,99722.57
2019-03-06T03:37:38.209Z,99721.81
2019-03-06T03:40:06.758Z,99717.30
2019-03-06T03:42:33.949Z,99723.95
2019-03-06T03:45:00.959Z,99724.52
2019-03-06T03:47:29.090Z,99718.72
2019-03-06T03:49:56.144Z,99712.26
2019-03-06T03:52:23.179Z,99714.16
2019-03-06T03:54:50.707Z,99709.28
2019-03-06T03:57:19.204Z,99704.96
2019-03-06T03:59:46.451Z,99698.66
2019-03-06T04:02:14.001Z,99700.95
2019-03-06T04:04:41.111Z,99696.45
2019-03-06T04:07:08.161Z,99689.91
2019-03-06T04:09:35.655Z,99689.09
2019-03-06T04:12:03.117Z,99690.95
2019-03-06T04:14:30.194Z,99689.84
2019-03-06T04:16:57.638Z,99689.31
2019-03-06T04:19:24.731Z,99675.73
2019-03-06T04:21:51.751Z,99671.83
2019-03-06T04:24:18.805Z,99669.22
2019-03-06T04:26:45.846Z,99670.16
2019-03-06T04:29:13.990Z,99669.90
2019-03-06T04:31:41.682Z,99677.85
2019-03-06T04:34:08.729Z,99674.20
2019-03-06T04:36:35.788Z,99667.23
2019-03-06T04:39:04.162Z,99663.22
2019-03-06T04:41:32.678Z,99658.84
2019-03-06T04:43:59.724Z,99653.25
2019-03-06T04:46:27.203Z,99647.12
2019-03-06T04:48:54.278Z,99642.80
2019-03-06T04:51:21.858Z,99650.44
2019-03-06T04:53:49.070Z,99646.34
2019-03-06T04:56:16.152Z,99649.02
2019-03-06T04:58:43.389Z,99657.92
2019-03-06T05:01:10.918Z,99642.62
2019-03-06T05:03:38.069Z,99640.17
2019-03-06T05:06:05.306Z,99648.39
2019-03-06T05:08:33.132Z,99651.77
2019-03-06T05:11:00.232Z,99645.22
2019-03-06T05:13:27.261Z,99636.67
2019-03-06T05:15:54.301Z,99631.22
2019-03-06T05:18:35.666Z,99630.16
2019-03-06T05:21:02.699Z,99634.84
2019-03-06T05:23:29.863Z,99634.92
2019-03-06T05:25:56.923Z,99630.28
2019-03-06T05:28:25.807Z,99633.87
2019-03-06T05:30:52.802Z,99628.19
2019-03-06T05:33:20.365Z,99628.34
2019-03-06T05:36:35.242Z,99632.73
2019-03-06T05:39:03.979Z,99624.31
2019-03-06T05:41:33.026Z,99615.95
2019-03-06T05:44:01.209Z,99609.20
2019-03-06T05:46:29.646Z,99608.83
2019-03-06T05:48:57.880Z,99598.02
2019-03-06T05:51:26.941Z,99595.81
2019-03-06T05:53:54.470Z,99594.76
2019-03-06T05:56:21.512Z,99587.52
2019-03-06T05:58:50.224Z,99580.38
2019-03-06T06:01:18.683Z,99581.61
2019-03-06T06:03:46.021Z,99590.69
2019-03-06T06:06:13.210Z,99585.14
2019-03-06T06:08:40.636Z,99581.94
2019-03-06T06:11:07.685Z,99577.95
2019-03-06T06:13:34.754Z,99574.74
2019-03-06T06:16:01.786Z,99578.80
2019-03-06T06:18:29.347Z,99572.59
2019-03-06T06:21:15.704Z,99574.34
2019-03-06T06:23:46.922Z,99574.84
2019-03-06T06:26:14.273Z,99577.20
2019-03-06T06:28:41.849Z,99567.19
2019-03-06T06:31:08.917Z,99557.23
2019-03-06T06:33:43.591Z,99547.48
2019-03-06T06:36:11.084Z,99547.25
2019-03-06T06:38:38.191Z,99549.67
2019-03-06T06:41:05.246Z,99546.88
2019-03-06T06:43:32.297Z,99550.53
2019-03-06T06:45:59.335Z,99544.30
2019-03-06T06:48:26.717Z,99548.38
2019-03-06T06:51:44.931Z,99537.06
2019-03-06T06:54:52.315Z,99532.91
2019-03-06T06:58:15.088Z,99535.19
2019-03-06T07:01:24.008Z,99532.64
2019-03-06T07:04:42.934Z,99540.55
2019-03-06T07:07:46.175Z,99536.47
2019-03-06T07:10:31.714Z,99529.17
2019-03-06T07:13:18.660Z,99519.06
2019-03-06T07:16:08.054Z,99507.08
2019-03-06T07:19:14.178Z,99501.35
2019-03-06T07:22:01.297Z,99495.88
2019-03-06T07:29:00.654Z,99483.27
2019-03-06T07:31:54.086Z,99482.03
2019-03-06T07:34:55.992Z,99484.39
2019-03-06T07:37:48.700Z,99481.97
2019-03-06T07:43:44.930Z,99493.38
2019-03-06T07:46:34.041Z,99485.30
2019-03-06T07:49:11.607Z,99489.55
2019-03-06T07:51:55.496Z,99483.41
2019-03-06T07:54:35.468Z,99480.30
2019-03-06T07:57:38.768Z,99476.30
2019-03-06T08:00:13.355Z,99480.48
2019-03-06T08:03:21.325Z,99481.01
2019-03-06T08:05:48.848Z,99474.30
2019-03-06T08:08:18.106Z,99467.06
2019-03-06T08:10:45.250Z,99468.22
2019-03-06T08:13:25.114Z,99471.15
2019-03-06T08:15:59.450Z,99462.58
2019-03-06T08:18:44.942Z,99465.63
2019-03-06T08:21:18.942Z,99455.23
2019-03-06T08:24:06.158Z,99456.73
2019-03-06T08:26:34.602Z,99455.50
2019-03-06T08:29:03.562Z,99458.82
2019-03-06T08:31:56.661Z,99461.67
2019-03-06T08:34:23.785Z,99453.27
2019-03-06T08:36:50.967Z,99457.24
2019-03-06T08:39:22.461Z,99458.64
2019-03-06T08:41:49.537Z,99467.03
2019-03-06T08:44:16.666Z,99457.94
2019-03-06T08:47:04.412Z,99448.23
2019-03-06T08:50:09.486Z,99441.98
2019-03-06T08:52:51.908Z,99446.86
2019-03-06T08:55:38.619Z,99438.48
2019-03-06T08:58:40.322Z,99432.25
2019-03-06T09:01:49.332Z,99422.99
2019-03-06T09:04:39.768Z,99403.59
2019-03-06T09:07:25.557Z,99400.84
2019-03-06T09:10:29.609Z,99405.89
2019-03-06T09:13:16.479Z,99397.84
2019-03-06T09:16:02.117Z,99391.19
2019-03-06T09:19:02.129Z,99387.03
2019-03-06T09:21:57.785Z,99396.02
2019-03-06T09:24:44.415Z,99387.96
2019-03-06T09:27:34.169Z,99380.45
2019-03-06T09:30:20.841Z,99369.51
2019-03-06T09:32:55.031Z,99354.05
2019-03-06T09:35:44.902Z,99349.16
2019-03-06T09:38:33.047Z,99345.89
2019-03-06T09:41:25.502Z,99340.80
2019-03-06T09:44:16.014Z,99336.51
2019-03-06T09:47:01.511Z,99315.78
2019-03-06T09:49:35.392Z,99313.00
2019-03-06T09:52:23.237Z,99305.07
2019-03-06T09:55:05.882Z,99294.61
2019-03-06T09:57:58.551Z,99291.68
2019-03-06T10:00:47.538Z,99273.17
2019-03-06T10:03:47.072Z,99273.23
2019-03-06T10:06:23.985Z,99271.17
2019-03-06T10:08:59.719Z,99269.34
2019-03-06T10:11:54.848Z,99267.41
2019-03-06T10:14:29.772Z,99273.32
2019-03-06T10:17:05.803Z,99269.90
2019-03-06T10:19:39.069Z,99276.45
2019-03-06T10:22:06.205Z,99263.20
2019-03-06T10:24:33.736Z,99253.45
2019-03-06T10:27:00.822Z,99254.52
2019-03-06T10:29:28.306Z,99250.83
2019-03-06T10:31:55.571Z,99252.62
2019-03-06T10:34:22.893Z,99255.71
2019-03-06T10:36:50.023Z,99245.43
2019-03-06T10:39:18.615Z,99237.69
2019-03-06T10:41:45.670Z,99238.53
2019-03-06T10:44:13.036Z,99237.88
2019-03-06T10:46:40.687Z,99239.70
2019-03-06T10:49:07.853Z,99237.19
2019-03-06T10:51:34.965Z,99228.39
2019-03-06T10:54:02.258Z,99231.69
2019-03-06T10:56:30.505Z,99224.22
2019-03-06T10:58:58.399Z,99210.02
2019-03-06T11:01:25.500Z,99211.91
2019-03-06T11:04:18.369Z,99208.04
2019-03-06T11:06:53.443Z,99207.04
2019-03-06T11:09:20.666Z,99194.39
2019-03-06T11:11:49.914Z,99194.24
2019-03-06T11:14:17.016Z,99184.27
2019-03-06T11:16:44.323Z,99186.72
2019-03-06T11:19:12.290Z,99182.23
2019-03-06T11:21:39.344Z,99169.88
2019-03-06T11:24:07.014Z,99158.06
2019-03-06T11:26:34.902Z,99157.72
2019-03-06T11:29:34.948Z,99158.22
2019-03-06T11:32:03.896Z,99156.35
2019-03-06T11:34:31.643Z,99145.13
2019-03-06T11:36:58.803Z,99142.44
2019-03-06T11:39:26.293Z,99130.53
2019-03-06T11:41:55.140Z,99134.39
2019-03-06T11:44:22.302Z,99116.63
2019-03-06T11:46:49.908Z,99108.48
2019-03-06T11:49:17.457Z,99101.76
2019-03-06T11:51:44.508Z,99102.89
2019-03-06T11:54:11.871Z,99097.07
2019-03-06T11:56:39.995Z,99094.28
2019-03-06T11:59:08.676Z,99087.50
2019-03-06T12:01:36.145Z,99079.56
2019-03-06T12:04:06.697Z,99081.98
2019-03-06T12:06:33.799Z,99070.74
2019-03-06T12:09:00.896Z,99072.03
2019-03-06T12:11:29.299Z,99065.67
2019-03-06T12:14:03.658Z,99060.06
2019-03-06T12:16:30.935Z,99053.17
2019-03-06T12:18:58.080Z,99051.31
2019-03-06T12:21:26.556Z,99053.19
2019-03-06T12:23:58.941Z,99043.81
2019-03-06T12:26:27.410Z,99046.26
2019-03-06T12:28:54.479Z,99041.44
2019-03-06T12:31:21.649Z,99041.48
2019-03-06T12:33:48.718Z,99033.67
2019-03-06T12:36:16.239Z,99021.30
2019-03-06T12:38:43.402Z,99024.36
2019-03-06T12:41:10.485Z,99021.14
2019-03-06T12:43:37.540Z,99013.75
2019-03-06T12:46:22.989Z,99007.68
2019-03-06T12:48:59.504Z,99011.52
2019-03-06T12:51:28.235Z,98999.64
2019-03-06T12:53:57.394Z,98994.20
2019-03-06T12:56:24.510Z,98989.59
2019-03-06T12:58:51.836Z,98987.55
2019-03-06T13:01:19.025Z,98977.66
2019-03-06T13:03:47.462Z,98963.71
2019-03-06T13:06:24.174Z,98965.14
2019-03-06T13:08:50.448Z,98953.55
2019-03-06T13:11:20.454Z,98948.25
2019-03-06T13:13:48.645Z,98943.19
2019-03-06T13:16:15.944Z,98933.69
2019-03-06T13:18:44.818Z,98937.70
2019-03-06T13:21:13.606Z,98936.64
2019-03-06T13:23:40.887Z,98932.48
2019-03-06T13:26:10.671Z,98926.28
2019-03-06T13:28:38.118Z,98919.17
2019-03-06T13:31:07.648Z,98922.42
2019-03-06T13:33:42.939Z,98909.78
2019-03-06T13:36:12.389Z,98903.95
2019-03-06T13:38:39.553Z,98898.80
2019-03-06T13:41:07.172Z,98903.20
2019-03-06T13:43:34.493Z,98897.70
2019-03-06T13:46:04.436Z,98895.52
2019-03-06T13:48:32.014Z,98894.95
2019-03-06T13:51:00.380Z,98893.70
2019-03-06T13:53:44.822Z,98884.69
2019-03-06T13:56:14.365Z,98881.30
2019-03-06T13:58:41.466Z,98883.21
2019-03-06T14:01:10.370Z,98876.45
2019-03-06T14:03:37.508Z,98870.84
2019-03-06T14:06:08.676Z,98866.84
2019-03-06T14:08:36.060Z,98867.03
2019-03-06T14:11:22.138Z,98865.09
2019-03-06T14:14:02.403Z,98862.97
2019-03-06T14:16:31.822Z,98864.09
2019-03-06T14:19:04.444Z,98859.96
2019-03-06T14:21:34.060Z,98866.84
2019-03-06T14:24:01.643Z,98863.25
2019-03-06T14:26:28.802Z,98858.77
2019-03-06T14:28:56.083Z,98855.74
2019-03-06T14:31:24.764Z,98846.38
2019-03-06T14:33:54.175Z,98834.08
2019-03-06T14:36:21.568Z,98834.65
2019-03-06T14:38:48.866Z,98840.61
2019-03-06T14:41:16.093Z,98827.15
2019-03-06T14:43:43.471Z,98835.30
2019-03-06T14:46:16.594Z,98814.84
2019-03-06T14:48:40.412Z,98820.05
2019-03-06T14:51:07.548Z,98810.95
2019-03-06T14:53:41.871Z,98817.38
2019-03-06T14:56:09.330Z,98824.26
2019-03-06T14:58:36.518Z,98819.67
2019-03-06T15:01:05.500Z,98815.62
2019-03-06T15:03:34.779Z,98812.63
2019-03-06T15:06:01.956Z,98812.84
2019-03-06T15:08:29.494Z,98799.80
2019-03-06T15:10:56.957Z,98799.41
2019-03-06T15:13:24.008Z,98794.41
2019-03-06T15:15:51.481Z,98791.27
2019-03-06T15:18:18.762Z,98792.48
2019-03-06T15:20:45.869Z,98794.77
2019-03-06T15:23:12.989Z,98793.28
2019-03-06T15:25:40.632Z,98783.88
2019-03-06T15:28:07.707Z,98786.98
2019-03-06T15:30:35.191Z,98783.94
2019-03-06T15:33:02.525Z,98781.53
2019-03-06T15:35:29.584Z,98782.13
2019-03-06T15:37:56.704Z,98779.39
2019-03-06T15:40:25.642Z,98779.02
2019-03-06T15:42:52.711Z,98773.79
2019-03-06T15:45:22.555Z,98780.40
2019-03-06T15:47:49.682Z,98776.44
2019-03-06T15:50:17.658Z,98777.06
2019-03-06T15:52:45.177Z,98772.63
2019-03-06T15:55:27.853Z,98767.58
2019-03-06T15:58:01.186Z,98763.40
2019-03-06T16:00:32.983Z,98759.75
2019-03-06T16:03:00.276Z,98759.69
2019-03-06T16:05:27.772Z,98759.88
2019-03-06T16:07:56.228Z,98760.01
2019-03-06T16:10:24.325Z,98753.98
2019-03-06T16:12:51.836Z,98755.64
2019-03-06T16:15:19.262Z,98750.36
2019-03-06T16:17:50.707Z,98752.84
2019-03-06T16:20:18.280Z,98748.92
2019-03-06T16:22:46.238Z,98749.73
2019-03-06T16:25:14.123Z,98757.55
2019-03-06T16:27:41.383Z,98757.94
2019-03-06T16:30:11.355Z,98752.08
2019-03-06T16:32:39.014Z,98753.45
2019-03-06T16:35:06.742Z,98753.98
2019-03-06T16:37:33.927Z,98756.95
2019-03-06T16:40:01.436Z,98757.44
2019-03-06T16:42:29.243Z,98760.25
2019-03-06T16:44:56.514Z,98760.62
2019-03-06T16:47:23.941Z,98765.75
2019-03-06T16:49:51.044Z,98765.33
2019-03-06T16:52:18.123Z,98763.06
2019-03-06T16:54:46.701Z,98757.03
2019-03-06T16:57:15.424Z,98762.68
2019-03-06T16:59:42.789Z,98763.00
2019-03-06T17:02:10.716Z,98760.61
2019-03-06T17:04:38.058Z,98758.34
2019-03-06T17:07:05.147Z,98761.21
2019-03-06T17:09:32.423Z,98759.70
2019-03-06T17:12:02.056Z,98768.26
2019-03-06T17:14:29.246Z,98768.09
2019-03-06T17:16:56.766Z,98771.59
2019-03-06T17:19:24.143Z,98765.02
2019-03-06T17:21:51.377Z,98764.88
2019-03-06T17:24:22.302Z,98765.89
2019-03-06T17:26:49.487Z,98766.30
2019-03-06T17:29:16.733Z,98772.02
2019-03-06T17:31:44.485Z,98760.06
2019-03-06T17:34:13.251Z,98766.47
2019-03-06T17:36:40.761Z,98761.11
2019-03-06T17:39:09.399Z,98763.41
2019-03-06T17:41:38.577Z,98770.30
2019-03-06T17:44:05.707Z,98776.92
2019-03-06T17:46:33.385Z,98771.17
2019-03-06T17:49:00.843Z,98777.53
2019-03-06T17:51:28.040Z,98772.88
2019-03-06T17:53:55.216Z,98768.36
2019-03-06T17:56:24.085Z,98772.17
2019-03-06T17:58:51.326Z,98771.20
2019-03-06T18:01:19.873Z,98772.16
2019-03-06T18:04:06.285Z,98776.50
2019-03-06T18:06:33.517Z,98774.45
2019-03-06T18:09:01.106Z,98770.94
2019-03-06T18:11:30.154Z,98770.39
2019-03-06T18:13:57.376Z,98758.97
2019-03-06T18:16:24.468Z,98753.31
2019-03-06T18:18:52.115Z,98754.73
2019-03-06T18:21:19.161Z,98748.64
2019-03-06T18:23:48.622Z,98737.69
2019-03-06T18:26:15.844Z,98736.97
2019-03-06T18:28:43.530Z,98730.54
2019-03-06T18:31:10.828Z,98722.81
2019-03-06T18:33:37.962Z,98712.47
2019-03-06T18:36:05.054Z,98703.41
2019-03-06T18:38:32.740Z,98703.17
2019-03-06T18:41:00.172Z,98704.18
2019-03-06T18:43:30.303Z,98701.34
2019-03-06T18:46:05.803Z,98700.49
2019-03-06T18:48:32.996Z,98694.25
2019-03-06T18:51:00.492Z,98692.14
2019-03-06T18:53:28.065Z,98689.64
2019-03-06T18:55:55.185Z,98682.22
2019-03-06T18:58:22.612Z,98687.98
2019-03-06T19:00:50.073Z,98680.22
2019-03-06T19:03:17.248Z,98672.59
2019-03-06T19:05:46.522Z,98667.72
2019-03-06T19:08:14.533Z,98662.72
2019-03-06T19:10:42.942Z,98651.11
2019-03-06T19:13:12.379Z,98642.29
2019-03-06T19:15:39.985Z,98640.63
2019-03-06T19:18:08.055Z,98638.16
2019-03-06T19:20:35.123Z,98633.45
2019-03-06T19:23:02.416Z,98632.58
2019-03-06T19:25:31.340Z,98617.01
2019-03-06T19:27:58.837Z,98624.89
2019-03-06T19:30:25.949Z,98616.68
2019-03-06T19:32:54.697Z,98604.58
2019-03-06T19:35:21.972Z,98610.03
2019-03-06T19:37:49.094Z,98607.80
2019-03-06T19:40:16.382Z,98609.86
2019-03-06T19:42:44.083Z,98608.73
2019-03-06T19:45:14.191Z,98594.17
2019-03-06T19:47:42.881Z,98603.37
2019-03-06T19:50:12.393Z,98608.55
2019-03-06T19:52:39.482Z,98606.95
2019-03-06T19:55:07.204Z,98609.98
2019-03-06T19:57:54.630Z,98612.16
2019-03-06T20:00:22.692Z,98594.89
2019-03-06T20:02:50.503Z,98593.19
2019-03-06T20:05:18.473Z,98596.03
2019-03-06T20:07:47.124Z,98587.75
2019-03-06T20:10:14.911Z,98585.38
2019-03-06T20:12:46.112Z,98591.22
2019-03-06T20:15:15.104Z,98583.86
2019-03-06T20:17:42.195Z,98576.56
2019-03-06T20:20:10.085Z,98556.98
2019-03-06T20:22:37.618Z,98571.66
2019-03-06T20:25:06.770Z,98586.79
2019-03-06T20:27:34.919Z,98569.67
2019-03-06T20:30:02.331Z,98559.46
2019-03-06T20:32:29.845Z,98561.88
2019-03-06T20:34:57.080Z,98557.77
2019-03-06T20:37:24.140Z,98559.27
2019-03-06T20:39:51.230Z,98553.18
2019-03-06T20:42:18.760Z,98550.73
2019-03-06T20:44:45.909Z,98572.02
2019-03-06T20:47:15.259Z,98553.14
2019-03-06T20:49:42.594Z,98540.55
2019-03-06T20:52:09.769Z,98549.89
2019-03-06T20:54:36.871Z,98543.89
2019-03-06T20:57:04.628Z,98531.11
2019-03-06T20:59:31.805Z,98531.27
2019-03-06T21:01:58.907Z,98520.33
2019-03-06T21:04:27.031Z,98506.09
2019-03-06T21:06:54.117Z,98508.61
2019-03-06T21:09:21.252Z,98508.40
2019-03-06T21:11:49.021Z,98512.41
2019-03-06T21:14:16.133Z,98510.70
2019-03-06T21:16:43.385Z,98512.72
2019-03-06T21:19:11.057Z,98514.60
2019-03-06T21:21:38.379Z,98496.61
2019-03-06T21:24:05.844Z,98478.22
2019-03-06T21:26:32.957Z,98484.09
2019-03-06T21:29:00.312Z,98488.96
2019-03-06T21:31:27.396Z,98484.63
2019-03-06T21:33:54.975Z,98489.52
2019-03-06T21:36:23.145Z,98482.34
2019-03-06T21:38:50.650Z,98472.32
2019-03-06T21:41:18.006Z,98466.95
2019-03-06T21:43:45.165Z,98464.70
2019-03-06T21:46:12.506Z,98467.69
2019-03-06T21:48:40.068Z,98478.79
2019-03-06T21:51:08.634Z,98470.22
2019-03-06T21:53:36.040Z,98477.77
2019-03-06T21:56:03.174Z,98483.69
2019-03-06T21:58:30.205Z,98484.06
2019-03-06T22:00:57.309Z,98484.80
2019-03-06T22:03:24.801Z,98479.87
2019-03-06T22:05:52.253Z,98480.38
2019-03-06T22:08:19.575Z,98494.38
2019-03-06T22:10:46.807Z,98493.95
2019-03-06T22:13:13.844Z,98499.07
2019-03-06T22:15:43.175Z,98499.19
2019-03-06T22:18:10.230Z,98517.25
2019-03-06T22:20:37.622Z,98523.23
2019-03-06T22:23:04.953Z,98517.55
2019-03-06T22:25:32.596Z,98509.55
2019-03-06T22:27:59.729Z,98511.70
2019-03-06T22:30:27.156Z,98514.09
2019-03-06T22:32:54.366Z,98501.27
2019-03-06T22:35:21.511Z,98494.93
2019-03-06T22:37:49.132Z,98492.02
2019-03-06T22:40:17.009Z,98483.64
2019-03-06T22:42:44.410Z,98475.41
2019-03-06T22:45:12.681Z,98463.40
2019-03-06T22:47:40.122Z,98454.61
2019-03-06T22:50:09.629Z,98453.71
2019-03-06T22:52:36.790Z,98452.20
2019-03-06T22:55:04.917Z,98450.53
2019-03-06T22:57:32.197Z,98450.59
2019-03-06T22:59:59.248Z,98448.52
2019-03-06T23:02:26.591Z,98449.72
2019-03-06T23:04:55.449Z,98453.50
2019-03-06T23:07:23.204Z,98454.06
2019-03-06T23:09:50.402Z,98443.95
2019-03-06T23:12:17.551Z,98455.19
2019-03-06T23:14:44.591Z,98442.27
2019-03-06T23:17:11.665Z,98434.05
2019-03-06T23:19:38.779Z,98434.24
2019-03-06T23:22:06.136Z,98431.34
2019-03-06T23:24:33.183Z,98423.92
2019-03-06T23:27:00.355Z,98426.13
2019-03-06T23:29:27.427Z,98421.36
2019-03-06T23:31:54.502Z,98418.97
2019-03-06T23:34:21.991Z,98421.41
2019-03-06T23:36:49.273Z,98416.06
2019-03-06T23:39:17.426Z,98416.28
2019-03-06T23:41:44.484Z,98418.59
2019-03-06T23:44:13.235Z,98421.81
2019-03-06T23:46:40.294Z,98418.45
2019-03-06T23:49:07.685Z,98411.70
2019-03-06T23:51:37.167Z,98407.17
2019-03-06T23:54:04.626Z,98399.52
2019-03-06T23:56:31.827Z,98400.27
2019-03-06T23:58:59.565Z,98389.98
